Latest Coastal Weather Observations for Maningrida Airport

IDD60701

Issued at 1:32 am CST Tuesday 24 September 2019 (issued every 10 minutes, with the page automatically refreshed every 10 minutes)

About coastal observations | Map of coastal stations | Coastal observations for NT | Marine services | Other Formats
Station Details ID: 014405 Name: MANINGRIDA AIRPORT Lat: -12.06 Lon: 134.23 Height: 28.1 m
Data from the previous 72 hours. | See also: Recent months at Maningrida Airport
Date/Time
CST
Wind Sea
Height
m
Swell Vis
km
Cloud Weather Temp
°C
Press
hPa
Rain since
9am
mm
Dir  Spd
kts
Gust
kts
Height
m
Period
s
Dir
24/01:30am ESE 5 6 - - - - 10 Clear - 24.0 1014.9 0.0
24/01:00am ESE 5 7 - - - - 10 - - 24.3 1015.1 0.0
24/12:30am ESE 5 7 - - - - 10 - - 24.5 1015.4 0.0
24/12:00am ESE 5 7 - - - - 10 - - 24.7 1015.7 0.0
 
Date/Time
CST
Wind Sea
Height
m
Swell Vis
km
Cloud Weather Temp
°C
Press
hPa
Rain since
9am
mm
Dir  Spd
kts
Gust
kts
Height
m
Period
s
Dir
23/11:30pm SE 4 7 - - - - 10 - - 24.9 1015.9 0.0
23/11:00pm ESE 5 7 - - - - 10 - - 25.4 1015.9 0.0
23/10:30pm E 8 13 - - - - 10 - - 25.7 1015.9 0.0
23/10:00pm E 8 11 - - - - 10 - - 25.8 1015.7 0.0
23/09:30pm E 9 13 - - - - 10 - - 25.7 1015.6 0.0
23/09:00pm E 9 13 - - - - 10 - - 25.7 1015.3 0.0
23/08:30pm E 9 13 - - - - 10 - - 25.8 1015.0 0.0
23/08:00pm ENE 9 14 - - - - 10 - - 25.9 1014.9 0.0
23/07:30pm ENE 11 17 - - - - 10 - - 26.0 1014.6 0.0
23/07:00pm E 12 16 - - - - 10 - - 26.1 1014.2 0.0
23/06:30pm ENE 11 17 - - - - 10 - - 26.4 1013.9 0.0
23/06:00pm ENE 10 16 - - - - 10 Cloudy - 27.2 1013.5 0.0
23/05:30pm ENE 10 16 - - - - 10 - - 27.3 1013.4 0.0
23/05:00pm ENE 10 17 - - - - 10 - - 27.8 1013.2 0.0
23/04:30pm ENE 12 19 - - - - 10 - - 28.4 1012.9 0.0
23/04:00pm ENE 13 20 - - - - 10 - - 29.0 1012.9 0.0
23/03:30pm ENE 12 19 - - - - 10 - - 29.7 1013.1 0.0
23/03:00pm ENE 11 18 - - - - 10 Partly cloudy - 30.1 1013.3 0.0
23/02:30pm ENE 13 18 - - - - 10 Partly cloudy - 31.2 1013.7 0.0
23/02:00pm NE 11 19 - - - - 10 Partly cloudy - 31.1 1014.0 0.0
23/01:30pm ENE 14 20 - - - - 10 Partly cloudy - 29.9 1014.6 0.0
23/01:00pm ENE 10 17 - - - - 10 Partly cloudy - 30.8 1015.0 0.0
23/12:30pm ENE 12 17 - - - - 10 Partly cloudy - 30.8 1015.3 0.0
23/12:00pm ENE 10 17 - - - - 10 Partly cloudy - 30.7 1015.7 0.0
23/11:30am ENE 13 19 - - - - 10 Partly cloudy - 30.3 1016.1 0.0
23/11:00am E 12 22 - - - - 10 Partly cloudy - 30.1 1016.3 0.0
23/10:30am E 10 18 - - - - 10 Partly cloudy - 30.7 1016.6 0.0
23/10:00am ESE 13 19 - - - - 10 - - 30.1 1016.8 0.0
23/09:30am ESE 10 16 - - - - 10 - - 28.9 1016.8 0.0
23/09:00am ESE 8 12 - - - - 10 Mostly clear - 27.5 1016.8 0.0
23/08:30am ESE 7 11 - - - - 10 - - 26.4 1016.8 0.0
23/08:00am SE 6 8 - - - - 10 - - 25.2 1016.7 0.0
23/07:30am SE 5 7 - - - - 10 - - 24.5 1016.4 0.0
23/07:00am SSE 5 6 - - - - 10 - - 23.7 1016.0 0.0
23/06:30am SSE 3 5 - - - - 10 - - 23.7 1015.8 0.0
23/06:00am SE 4 5 - - - - 10 Cloudy - 24.1 1015.2 0.0
23/05:30am SSE 5 6 - - - - 10 Cloudy - 24.1 1014.7 0.0
23/05:00am SSE 5 6 - - - - 10 Partly cloudy - 24.3 1014.5 0.0
23/04:30am SSE 4 5 - - - - 10 Cloudy - 24.5 1014.3 0.0
23/04:00am SSE 3 4 - - - - 10 Cloudy - 24.7 1014.5 0.0
23/03:30am SE 5 7 - - - - 10 Cloudy - 25.1 1014.7 0.0
23/03:00am ESE 6 8 - - - - 10 Cloudy - 25.3 1014.7 0.0
23/02:30am ESE 7 9 - - - - 10 Cloudy - 25.5 1014.9 0.0
23/02:00am SE 3 4 - - - - 10 Cloudy - 25.0 1015.1 0.0
23/01:30am SE 1 3 - - - - 10 Partly cloudy - 25.2 1015.4 0.0
23/01:00am ESE 3 4 - - - - 10 Partly cloudy - 25.7 1015.8 0.0
23/12:30am CALM 0 0 - - - - 10 Cloudy - 25.7 1015.8 0.0
23/12:00am CALM 0 0 - - - - 10 Cloudy - 25.6 1016.1 0.0
 
Date/Time
CST
Wind Sea
Height
m
Swell Vis
km
Cloud Weather Temp
°C
Press
hPa
Rain since
9am
mm
Dir  Spd
kts
Gust
kts
Height
m
Period
s
Dir
22/11:30pm SSE 2 4 - - - - 10 Cloudy - 25.5 1016.4 0.0
22/11:00pm SSE 3 4 - - - - 10 Partly cloudy - 25.7 1016.5 0.0
22/10:30pm SSE 4 7 - - - - 10 Partly cloudy - 25.9 1016.7 0.0
22/10:00pm E 5 7 - - - - 10 Partly cloudy - 25.9 1016.7 0.0
22/09:30pm E 7 10 - - - - 10 - - 25.9 1016.6 0.0
22/09:00pm E 7 10 - - - - 10 Mostly cloudy - 25.9 1016.3 0.0
22/08:30pm E 7 10 - - - - 10 Cloudy - 26.1 1016.2 0.0
22/08:00pm ENE 7 11 - - - - 10 Cloudy - 26.2 1015.9 0.0
22/07:30pm ENE 8 12 - - - - 10 Partly cloudy - 26.1 1015.4 0.0
22/07:00pm ENE 8 13 - - - - 10 Partly cloudy - 26.2 1015.2 0.0
22/06:30pm ENE 8 12 - - - - 10 Partly cloudy - 26.4 1014.7 0.0
22/06:00pm ENE 8 15 - - - - 10 - - 27.1 1014.2 0.0
22/05:30pm NE 8 13 - - - - 10 - - 27.7 1013.9 0.0
22/05:00pm ENE 11 16 - - - - 10 Partly cloudy - 27.2 1013.5 0.0
22/04:30pm ENE 10 15 - - - - 10 Partly cloudy - 27.9 1013.4 0.0
22/04:00pm NE 11 15 - - - - 10 Partly cloudy - 29.0 1013.3 0.0
22/03:30pm NE 12 17 - - - - 10 Partly cloudy - 30.3 1013.4 0.0
22/03:00pm NE 13 19 - - - - 10 - - 30.2 1013.6 0.0
22/02:30pm ENE 12 23 - - - - 10 - - 30.0 1013.7 0.0
22/02:00pm NE 13 22 - - - - 10 - - 30.3 1013.9 0.0
22/01:30pm ENE 14 22 - - - - 10 - - 30.5 1014.0 0.0
22/01:00pm ENE 16 21 - - - - 10 - - 30.6 1014.5 0.0
22/12:30pm ENE 15 21 - - - - 10 - - 30.4 1015.1 0.0
22/12:00pm E 13 21 - - - - 10 Mostly clear - 30.5 1015.7 0.0
22/11:30am ENE 13 17 - - - - 10 - - 30.7 1016.0 0.0
22/11:00am ENE 13 18 - - - - 10 - - 30.3 1016.3 0.0
22/10:30am E 11 19 - - - - 10 - - 30.6 1016.4 0.0
22/10:00am ENE 10 16 - - - - 10 - - 30.0 1016.5 0.0
22/09:30am E 9 15 - - - - 10 - - 30.3 1016.5 0.0
22/09:00am E 8 11 - - - - 10 - - 28.3 1016.4 0.0
22/08:30am SE 6 9 - - - - 10 - - 27.6 1016.1 0.0
22/08:00am SE 6 9 - - - - 10 - - 26.1 1015.8 0.0
22/07:30am SE 6 8 - - - - 10 - - 24.5 1015.7 0.0
22/07:00am SSE 5 6 - - - - 10 - - 23.2 1015.3 0.0
22/06:30am SSE 4 7 - - - - 10 - - 22.3 1015.1 0.0
22/06:00am S 4 5 - - - - 7 - - 22.1 1014.6 0.0
22/05:41am S 4 6 - - - - 10 - - 22.1 1014.4 0.0
22/05:30am S 4 5 - - - - 5 - - 21.8 1014.3 0.0
22/05:28am S 4 5 - - - - 5 - - 21.9 1014.3 0.0
22/05:00am SSE 3 4 - - - - 10 - - 22.1 1014.1 0.0
22/04:30am SSE 3 4 - - - - 10 - - 22.5 1014.0 0.0
22/04:00am SSE 2 3 - - - - 10 - - 23.1 1013.9 0.0
22/03:30am S 4 6 - - - - 10 Partly cloudy - 23.7 1013.8 0.0
22/03:00am ESE 5 6 - - - - 10 Partly cloudy - 24.3 1013.9 0.0
22/02:30am ESE 5 6 - - - - 10 Partly cloudy - 24.5 1014.1 0.0
22/02:00am ESE 5 7 - - - - 10 - - 24.7 1014.0 0.0
22/01:30am ENE 6 9 - - - - 10 Partly cloudy - 25.0 1013.9 0.0
22/01:00am ENE 7 10 - - - - 10 Partly cloudy - 25.2 1014.2 0.0
22/12:30am ENE 8 12 - - - - 10 Partly cloudy - 25.4 1014.6 0.0
22/12:00am ENE 8 13 - - - - 10 Partly cloudy - 25.3 1014.8 0.0
 
Date/Time
CST
Wind Sea
Height
m
Swell Vis
km
Cloud Weather Temp
°C
Press
hPa
Rain since
9am
mm
Dir  Spd
kts
Gust
kts
Height
m
Period
s
Dir
21/11:30pm ENE 8 12 - - - - 10 Partly cloudy - 25.4 1014.8 0.0
21/11:00pm ENE 8 13 - - - - 10 Partly cloudy - 25.5 1015.0 0.0
21/10:30pm ENE 6 10 - - - - 10 Partly cloudy - 25.4 1014.9 0.0
21/10:00pm ENE 6 9 - - - - 10 Partly cloudy - 25.3 1014.8 0.0
21/09:30pm E 3 5 - - - - 10 - - 24.9 1014.4 0.0
21/09:00pm NE 4 6 - - - - 10 - - 25.1 1014.0 0.0
21/08:30pm NE 5 7 - - - - 10 - - 25.2 1013.7 0.0
21/08:00pm NE 5 8 - - - - 10 - - 25.4 1013.6 0.0
21/07:30pm NE 6 8 - - - - 10 - - 25.4 1013.3 0.0
21/07:00pm NNE 6 8 - - - - 10 Partly cloudy - 25.7 1013.1 0.0
21/06:30pm NE 7 10 - - - - 10 - - 26.1 1012.9 0.0
21/06:00pm NNE 9 13 - - - - 10 - - 26.6 1012.7 0.0
21/05:30pm NNE 8 13 - - - - 10 Partly cloudy - 26.9 1012.6 0.0
21/05:00pm NNE 10 13 - - - - 10 - - 27.0 1012.5 0.0
21/04:30pm NNE 10 14 - - - - 10 - - 27.4 1012.3 0.0
21/04:00pm NNE 10 13 - - - - 10 - - 28.1 1012.4 0.0
21/03:30pm NE 12 17 - - - - 10 - - 29.1 1012.5 0.0
21/03:00pm N 12 16 - - - - 10 - - 29.4 1012.6 0.0
21/02:30pm NNE 11 17 - - - - 10 - - 29.4 1013.1 0.0
21/02:00pm NNE 10 15 - - - - 10 - - 30.7 1013.2 0.0
21/01:30pm NE 13 17 - - - - 10 - - 30.0 1013.5 0.0
21/01:00pm NE 12 17 - - - - 10 - - 29.7 1013.9 0.0
21/12:30pm NE 12 20 - - - - 10 - - 30.0 1014.3 0.0
21/12:00pm NE 12 20 - - - - 10 - - 29.8 1014.5 0.0
21/11:30am NE 12 17 - - - - 10 - - 29.8 1014.9 0.0
21/11:00am E 10 16 - - - - 10 - - 30.1 1015.3 0.0
21/10:30am NE 11 17 - - - - 10 Partly cloudy - 29.2 1015.6 0.0
21/10:00am ENE 8 14 - - - - 10 Partly cloudy - 28.7 1015.6 0.0
21/09:30am E 5 6 - - - - 10 Partly cloudy - 27.3 1015.7 0.0
21/09:00am ESE 6 8 - - - - 10 Partly cloudy - 26.5 1015.7 0.0
21/08:30am SE 6 8 - - - - 10 - - 26.2 1015.5 0.0
21/08:00am ESE 6 8 - - - - 10 - - 25.3 1015.3 0.0
21/07:30am SE 7 9 - - - - 10 - - 23.5 1015.1 0.0
21/07:00am SE 7 7 - - - - 10 - - 22.1 1014.9 0.0
21/06:30am SSE 4 5 - - - - 10 - - 21.8 1014.5 0.0
21/06:00am SSE 5 6 - - - - 10 Mostly clear - 21.9 1014.1 0.0
21/05:31am SSE 5 6 - - - - 10 Partly cloudy - 22.0 1013.9 0.0
21/05:30am SSE 5 6 - - - - 10 Partly cloudy - 22.0 1013.9 0.0
21/05:06am SSE 4 5 - - - - 10 Partly cloudy - 22.0 1013.7 0.0
21/05:00am SSE 4 5 - - - - 10 Partly cloudy - 22.0 1013.7 0.0
21/04:30am S 4 5 - - - - 10 Partly cloudy - 21.8 1013.2 0.0
21/04:00am S 3 4 - - - - 10 - - 21.9 1013.0 0.0
21/03:35am S 3 4 - - - - 10 Partly cloudy - 22.4 1012.9 0.0
21/03:30am S 3 4 - - - - 10 Partly cloudy - 22.6 1012.9 0.0
21/03:08am S 3 5 - - - - 10 Partly cloudy - 22.7 1012.9 0.0
21/03:00am SSW 3 4 - - - - 10 Cloudy - 22.7 1012.9 0.0
21/02:30am E 1 3 - - - - 10 Partly cloudy - 22.9 1013.0 0.0
21/02:00am E 3 5 - - - - 10 - - 23.9 1013.0 0.0

Other formats

Comma delimited format used in spreadsheet applications
http://www.bom.gov.au/fwo/IDD60701/IDD60701.95142.axf

JavaScript Object Notation format (JSON) in row-major order
http://www.bom.gov.au/fwo/IDD60701/IDD60701.95142.json

Data quality

Most of these data are generated automatically and are frequently updated. Quality checks on data are not normally performed. It is possible for incorrect values to appear. Refer to information at About Latest Weather Observations and please check the disclaimer before using these data.